createdAt,value
2019-02-08T00:00:19.396Z,0
2019-02-08T00:01:19.984Z,0
2019-02-08T00:02:19.167Z,0
2019-02-08T00:03:19.696Z,0
2019-02-08T00:04:18.939Z,0
2019-02-08T00:05:19.213Z,0
2019-02-08T00:06:19.501Z,0
2019-02-08T00:07:19.574Z,0
2019-02-08T00:08:20.008Z,0
2019-02-08T00:09:19.547Z,0
2019-02-08T00:10:19.564Z,0
2019-02-08T00:11:19.571Z,0
2019-02-08T00:12:22.211Z,0
2019-02-08T00:13:19.342Z,0
2019-02-08T00:14:19.635Z,0
2019-02-08T00:15:19.906Z,0
2019-02-08T00:16:20.460Z,0
2019-02-08T00:17:19.728Z,0
2019-02-08T00:18:19.691Z,0
2019-02-08T00:19:19.195Z,0
2019-02-08T00:20:19.490Z,0
2019-02-08T00:21:19.762Z,0
2019-02-08T00:22:19.774Z,0
2019-02-08T00:23:30.761Z,0
2019-02-08T00:24:20.195Z,0
2019-02-08T00:25:19.835Z,0
2019-02-08T00:26:20.135Z,0
2019-02-08T00:27:19.842Z,0
2019-02-08T00:28:19.886Z,0
2019-02-08T00:29:19.879Z,0
2019-02-08T00:30:19.399Z,0
2019-02-08T00:31:20.813Z,0
2019-02-08T00:32:19.710Z,0
2019-02-08T00:33:19.689Z,0
2019-02-08T00:34:20.007Z,0
2019-02-08T00:35:19.725Z,0
2019-02-08T00:36:19.743Z,0
2019-02-08T00:37:19.507Z,0
2019-02-08T00:38:20.234Z,0
2019-02-08T00:39:20.179Z,0
2019-02-08T00:40:19.803Z,0
2019-02-08T00:41:19.822Z,0
2019-02-08T00:42:19.596Z,0
2019-02-08T00:43:20.124Z,0
2019-02-08T00:44:20.139Z,0
2019-02-08T00:45:19.901Z,0
2019-02-08T00:46:20.781Z,0
2019-02-08T00:47:19.931Z,0
2019-02-08T00:48:19.686Z,0
2019-02-08T00:49:19.697Z,0
2019-02-08T00:50:20.244Z,0
2019-02-08T00:51:20.268Z,0
2019-02-08T00:52:20.283Z,0
2019-02-08T00:53:20.256Z,0
2019-02-08T00:54:20.163Z,0
2019-02-08T00:55:20.344Z,0
2019-02-08T00:56:20.086Z,0
2019-02-08T00:57:20.100Z,0
2019-02-08T00:58:20.123Z,0
2019-02-08T00:59:20.153Z,0
2019-02-08T01:00:20.169Z,0
2019-02-08T01:01:21.335Z,0
2019-02-08T01:02:20.464Z,0
2019-02-08T01:03:20.215Z,0
2019-02-08T01:04:19.980Z,0
2019-02-08T01:05:20.510Z,0
2019-02-08T01:06:20.261Z,0
2019-02-08T01:07:20.606Z,0
2019-02-08T01:08:20.614Z,0
2019-02-08T01:09:20.950Z,0
2019-02-08T01:10:20.601Z,0
2019-02-08T01:11:20.094Z,0
2019-02-08T01:12:20.370Z,0
2019-02-08T01:13:20.385Z,0
2019-02-08T01:14:20.684Z,0
2019-02-08T01:15:20.420Z,0
2019-02-08T01:16:21.053Z,0
2019-02-08T01:17:20.453Z,0
2019-02-08T01:18:20.761Z,0
2019-02-08T01:19:20.760Z,0
2019-02-08T01:20:20.507Z,0
2019-02-08T01:21:20.537Z,0
2019-02-08T01:22:20.542Z,0
2019-02-08T01:23:20.909Z,0
2019-02-08T01:24:20.564Z,0
2019-02-08T01:25:20.998Z,0
2019-02-08T01:26:20.618Z,0
2019-02-08T01:27:21.138Z,0
2019-02-08T01:28:20.639Z,0
2019-02-08T01:29:21.171Z,0
2019-02-08T01:30:20.932Z,0
2019-02-08T01:31:21.207Z,0
2019-02-08T01:32:20.446Z,0
2019-02-08T01:33:20.986Z,0
2019-02-08T01:34:20.474Z,0
2019-02-08T01:35:20.540Z,0
2019-02-08T01:36:21.032Z,0
2019-02-08T01:37:21.055Z,0
2019-02-08T01:38:21.068Z,0
2019-02-08T01:39:21.082Z,0
2019-02-08T01:40:20.845Z,0
2019-02-08T01:41:20.615Z,0
2019-02-08T01:42:20.615Z,0
2019-02-08T01:43:21.153Z,0
2019-02-08T01:44:20.917Z,0
2019-02-08T01:45:20.930Z,0
2019-02-08T01:46:21.201Z,0
2019-02-08T01:47:21.223Z,0
2019-02-08T01:48:21.236Z,0
2019-02-08T01:49:21.002Z,0
2019-02-08T01:50:21.015Z,0
2019-02-08T01:51:21.034Z,0
2019-02-08T01:52:20.790Z,0
2019-02-08T01:53:21.336Z,0
2019-02-08T01:54:21.341Z,0
2019-02-08T01:55:21.097Z,0
2019-02-08T01:56:21.125Z,0
2019-02-08T01:57:21.397Z,0
2019-02-08T01:58:20.897Z,0
2019-02-08T01:59:21.171Z,0
2019-02-08T02:00:21.448Z,0
2019-02-08T02:01:21.465Z,0
2019-02-08T02:02:21.480Z,0
2019-02-08T02:03:21.244Z,0
2019-02-08T02:04:21.258Z,0
2019-02-08T02:05:21.044Z,0
2019-02-08T02:06:21.294Z,0
2019-02-08T02:07:21.310Z,0
2019-02-08T02:08:21.325Z,0
2019-02-08T02:09:21.345Z,0
2019-02-08T02:10:21.358Z,0
2019-02-08T02:11:21.128Z,0
2019-02-08T02:12:21.396Z,0
2019-02-08T02:13:21.416Z,0
2019-02-08T02:14:21.431Z,0
2019-02-08T02:15:21.727Z,0
2019-02-08T02:16:21.730Z,0
2019-02-08T02:17:21.483Z,0
2019-02-08T02:18:21.265Z,0
2019-02-08T02:19:21.522Z,0
2019-02-08T02:20:21.547Z,0
2019-02-08T02:21:21.813Z,0
2019-02-08T02:22:21.832Z,0
2019-02-08T02:23:21.871Z,0
2019-02-08T02:24:21.867Z,0
2019-02-08T02:25:21.633Z,0
2019-02-08T02:26:21.644Z,0
2019-02-08T02:27:21.933Z,0
2019-02-08T02:28:21.941Z,0
2019-02-08T02:29:21.699Z,0
2019-02-08T02:30:21.495Z,0
2019-02-08T02:31:21.737Z,0
2019-02-08T02:32:22.013Z,0
2019-02-08T02:33:22.039Z,0
2019-02-08T02:34:22.051Z,0
2019-02-08T02:35:21.807Z,0
2019-02-08T02:36:21.575Z,0
2019-02-08T02:37:21.848Z,0
2019-02-08T02:38:22.117Z,0
2019-02-08T02:39:21.872Z,0
2019-02-08T02:40:21.633Z,0
2019-02-08T02:41:21.914Z,0
2019-02-08T02:42:21.668Z,0
2019-02-08T02:43:21.951Z,0
2019-02-08T02:44:22.232Z,0
2019-02-08T02:45:21.985Z,0
2019-02-08T02:46:22.254Z,0
2019-02-08T02:47:22.275Z,0
2019-02-08T02:48:22.603Z,0
2019-02-08T02:49:22.055Z,0
2019-02-08T02:50:21.823Z,0
2019-02-08T02:51:22.081Z,0
2019-02-08T02:52:22.352Z,0
2019-02-08T02:53:22.644Z,0
2019-02-08T02:54:22.154Z,0
2019-02-08T02:55:22.159Z,0
2019-02-08T02:56:22.169Z,0
2019-02-08T02:57:22.456Z,0
2019-02-08T02:58:22.219Z,0
2019-02-08T02:59:22.216Z,0
2019-02-08T03:00:21.979Z,0
2019-02-08T03:01:22.014Z,0
2019-02-08T03:02:22.530Z,0
2019-02-08T03:03:22.299Z,0
2019-02-08T03:04:22.045Z,0
2019-02-08T03:05:22.077Z,0
2019-02-08T03:06:22.089Z,0
2019-02-08T03:07:22.620Z,0
2019-02-08T03:08:22.636Z,0
2019-02-08T03:09:22.391Z,0
2019-02-08T03:10:22.448Z,0
2019-02-08T03:11:22.430Z,0
2019-02-08T03:12:22.457Z,0
2019-02-08T03:13:22.468Z,0
2019-02-08T03:14:22.998Z,0
2019-02-08T03:15:22.497Z,0
2019-02-08T03:16:22.262Z,0
2019-02-08T03:17:22.579Z,0
2019-02-08T03:18:22.296Z,0
2019-02-08T03:19:22.834Z,0
2019-02-08T03:20:22.347Z,0
2019-02-08T03:21:22.880Z,0
2019-02-08T03:22:22.877Z,0
2019-02-08T03:23:22.646Z,0
2019-02-08T03:24:22.926Z,0
2019-02-08T03:25:22.413Z,0
2019-02-08T03:26:22.950Z,0
2019-02-08T03:27:22.446Z,0
2019-02-08T03:28:22.728Z,0
2019-02-08T03:29:23.004Z,0
2019-02-08T03:30:22.773Z,0
2019-02-08T03:31:23.058Z,0
2019-02-08T03:32:22.809Z,0
2019-02-08T03:33:23.322Z,0
2019-02-08T03:34:23.094Z,0
2019-02-08T03:35:23.370Z,0
2019-02-08T03:36:23.178Z,0
2019-02-08T03:37:22.879Z,0
2019-02-08T03:38:23.420Z,0
2019-02-08T03:39:22.659Z,0
2019-02-08T03:40:22.931Z,0
2019-02-08T03:41:23.218Z,0
2019-02-08T03:42:22.966Z,0
2019-02-08T03:43:23.261Z,0
2019-02-08T03:44:23.006Z,0
2019-02-08T03:45:23.287Z,0
2019-02-08T03:46:23.041Z,0
2019-02-08T03:47:23.330Z,0
2019-02-08T03:48:23.638Z,0
2019-02-08T03:49:23.346Z,0
2019-02-08T03:50:23.111Z,0
2019-02-08T03:51:23.384Z,0
2019-02-08T03:52:23.152Z,0
2019-02-08T03:53:23.740Z,0
2019-02-08T03:54:28.523Z,0
2019-02-08T03:55:23.346Z,0
2019-02-08T03:56:22.950Z,0
2019-02-08T03:57:23.486Z,0
2019-02-08T03:58:23.246Z,0
2019-02-08T03:59:23.266Z,0
2019-02-08T04:00:23.537Z,0
2019-02-08T04:01:23.554Z,0
2019-02-08T04:02:23.062Z,0
2019-02-08T04:03:23.334Z,0
2019-02-08T04:04:23.345Z,0
2019-02-08T04:05:23.375Z,0
2019-02-08T04:06:23.669Z,0
2019-02-08T04:07:23.426Z,0
2019-02-08T04:08:23.737Z,0
2019-02-08T04:09:23.690Z,0
2019-02-08T04:10:23.758Z,0
2019-02-08T04:11:23.725Z,0
2019-02-08T04:12:23.228Z,0
2019-02-08T04:13:23.773Z,0
2019-02-08T04:14:23.780Z,0
2019-02-08T04:15:23.546Z,0
2019-02-08T04:16:23.565Z,0
2019-02-08T04:17:23.829Z,0
2019-02-08T04:18:23.861Z,0
2019-02-08T04:19:23.870Z,0
2019-02-08T04:20:23.884Z,0
2019-02-08T04:21:23.383Z,0
2019-02-08T04:22:23.395Z,0
2019-02-08T04:23:23.429Z,0
2019-02-08T04:24:32.187Z,0
2019-02-08T04:25:23.718Z,0
2019-02-08T04:26:23.726Z,0
2019-02-08T04:27:23.749Z,0
2019-02-08T04:28:23.830Z,0
2019-02-08T04:29:24.040Z,0
2019-02-08T04:30:24.316Z,0
2019-02-08T04:31:24.084Z,0
2019-02-08T04:32:23.830Z,0
2019-02-08T04:33:24.129Z,0
2019-02-08T04:34:24.126Z,0
2019-02-08T04:35:24.139Z,0
2019-02-08T04:36:23.641Z,0
2019-02-08T04:37:23.915Z,0
2019-02-08T04:38:25.305Z,0
2019-02-08T04:39:23.687Z,0
2019-02-08T04:40:24.222Z,0
2019-02-08T04:41:24.243Z,0
2019-02-08T04:42:24.003Z,0
2019-02-08T04:43:24.055Z,0
2019-02-08T04:44:24.297Z,0
2019-02-08T04:45:24.053Z,0
2019-02-08T04:46:23.813Z,0
2019-02-08T04:47:24.350Z,0
2019-02-08T04:48:23.850Z,0
2019-02-08T04:49:23.870Z,0
2019-02-08T04:50:24.401Z,0
2019-02-08T04:51:25.643Z,0
2019-02-08T04:52:24.186Z,0
2019-02-08T04:53:24.458Z,0
2019-02-08T04:54:23.945Z,0
2019-02-08T04:55:24.499Z,0
2019-02-08T04:56:24.496Z,0
2019-02-08T04:57:24.778Z,0
2019-02-08T04:58:24.015Z,0
2019-02-08T04:59:24.324Z,0
2019-02-08T05:00:24.046Z,0
2019-02-08T05:01:24.848Z,0
2019-02-08T05:02:24.600Z,0
2019-02-08T05:03:24.358Z,0
2019-02-08T05:04:24.124Z,0
2019-02-08T05:05:24.391Z,0
2019-02-08T05:06:24.935Z,0
2019-02-08T05:07:24.430Z,0
2019-02-08T05:08:24.444Z,0
2019-02-08T05:09:24.205Z,0
2019-02-08T05:10:24.498Z,0
2019-02-08T05:11:25.054Z,0
2019-02-08T05:12:24.778Z,0
2019-02-08T05:13:24.271Z,0
2019-02-08T05:14:24.550Z,0
2019-02-08T05:15:25.677Z,0
2019-02-08T05:16:24.334Z,0
2019-02-08T05:17:24.600Z,0
2019-02-08T05:18:24.630Z,0
2019-02-08T05:19:24.637Z,0
2019-02-08T05:20:24.651Z,0
2019-02-08T05:21:24.671Z,0
2019-02-08T05:22:24.711Z,0
2019-02-08T05:23:24.445Z,0
2019-02-08T05:24:24.722Z,0
2019-02-08T05:25:25.010Z,0
2019-02-08T05:26:24.496Z,0
2019-02-08T05:27:24.788Z,0
2019-02-08T05:28:24.783Z,0
2019-02-08T05:29:25.078Z,0
2019-02-08T05:30:24.830Z,0
2019-02-08T05:31:24.839Z,0
2019-02-08T05:32:24.593Z,0
2019-02-08T05:33:24.619Z,0
2019-02-08T05:34:24.894Z,0
2019-02-08T05:35:25.167Z,0
2019-02-08T05:36:25.186Z,0
2019-02-08T05:37:24.689Z,0
2019-02-08T05:38:24.960Z,0
2019-02-08T05:39:24.974Z,0
2019-02-08T05:40:24.735Z,0
2019-02-08T05:41:25.017Z,0
2019-02-08T05:42:25.284Z,0
2019-02-08T05:43:25.365Z,0
2019-02-08T05:44:25.078Z,0
2019-02-08T05:45:24.819Z,0
2019-02-08T05:46:25.093Z,0
2019-02-08T05:47:24.853Z,0
2019-02-08T05:48:24.870Z,0
2019-02-08T05:49:25.152Z,0
2019-02-08T05:50:25.695Z,0
2019-02-08T05:51:25.184Z,0
2019-02-08T05:52:25.469Z,0
2019-02-08T05:53:25.213Z,0
2019-02-08T05:54:25.237Z,0
2019-02-08T05:55:25.263Z,0
2019-02-08T05:56:25.310Z,0
2019-02-08T05:57:25.027Z,0
2019-02-08T05:58:25.565Z,0
2019-02-08T05:59:25.332Z,0
2019-02-08T06:00:25.331Z,0
2019-02-08T06:01:25.348Z,0
2019-02-08T06:02:25.892Z,0
2019-02-08T06:03:25.662Z,0
2019-02-08T06:04:25.689Z,0
2019-02-08T06:05:25.685Z,0
2019-02-08T06:06:25.461Z,0
2019-02-08T06:07:25.718Z,0
2019-02-08T06:08:25.487Z,0
2019-02-08T06:09:25.758Z,0
2019-02-08T06:10:25.246Z,0
2019-02-08T06:11:25.269Z,0
2019-02-08T06:12:25.813Z,0
2019-02-08T06:13:25.554Z,0
2019-02-08T06:14:25.601Z,0
2019-02-08T06:15:25.336Z,0
2019-02-08T06:16:25.623Z,0
2019-02-08T06:17:25.634Z,0
2019-02-08T06:18:25.644Z,0
2019-02-08T06:19:25.666Z,0
2019-02-08T06:20:26.205Z,0
2019-02-08T06:21:25.703Z,0
2019-02-08T06:22:25.815Z,0
2019-02-08T06:23:25.993Z,0
2019-02-08T06:24:25.751Z,0
2019-02-08T06:25:25.836Z,0
2019-02-08T06:26:26.041Z,0
2019-02-08T06:27:26.062Z,0
2019-02-08T06:28:25.813Z,0
2019-02-08T06:29:25.837Z,0
2019-02-08T06:30:26.382Z,0
2019-02-08T06:31:26.134Z,0
2019-02-08T06:32:25.624Z,4
2019-02-08T06:33:26.157Z,4
2019-02-08T06:34:25.676Z,0
2019-02-08T06:35:25.675Z,4
2019-02-08T06:36:25.699Z,4
2019-02-08T06:37:26.238Z,4
2019-02-08T06:38:26.509Z,4
2019-02-08T06:39:26.265Z,4
2019-02-08T06:40:26.031Z,8
2019-02-08T06:41:26.040Z,8
2019-02-08T06:42:26.315Z,8
2019-02-08T06:43:26.080Z,8
2019-02-08T06:44:26.643Z,8
2019-02-08T06:45:25.912Z,8
2019-02-08T06:46:25.881Z,12
2019-02-08T06:47:25.885Z,16
2019-02-08T06:48:26.161Z,12
2019-02-08T06:49:25.919Z,16
2019-02-08T06:50:25.932Z,16
2019-02-08T06:51:26.213Z,16
2019-02-08T06:52:25.967Z,16
2019-02-08T06:53:26.240Z,20
2019-02-08T06:54:26.262Z,24
2019-02-08T06:55:26.290Z,28
2019-02-08T06:56:26.299Z,28
2019-02-08T06:57:26.313Z,32
2019-02-08T06:58:26.331Z,36
2019-02-08T06:59:26.607Z,40
2019-02-08T07:00:26.364Z,40
2019-02-08T07:01:26.381Z,36
2019-02-08T07:02:26.659Z,40
2019-02-08T07:03:26.671Z,44
2019-02-08T07:04:28.478Z,52
2019-02-08T07:05:26.966Z,56
2019-02-08T07:06:26.982Z,56
2019-02-08T07:07:26.483Z,52
2019-02-08T07:08:26.515Z,52
2019-02-08T07:09:26.520Z,60
2019-02-08T07:10:26.796Z,76
2019-02-08T07:11:26.558Z,80
2019-02-08T07:12:26.567Z,84
2019-02-08T07:13:26.330Z,104
2019-02-08T07:14:26.346Z,108
2019-02-08T07:15:26.632Z,124
2019-02-08T07:16:26.659Z,132
2019-02-08T07:17:26.913Z,140
2019-02-08T07:18:26.672Z,148
2019-02-08T07:19:26.951Z,164
2019-02-08T07:20:26.704Z,168
2019-02-08T07:21:26.465Z,168
2019-02-08T07:22:27.676Z,172
2019-02-08T07:23:26.756Z,180
2019-02-08T07:24:27.302Z,176
2019-02-08T07:25:27.065Z,172
2019-02-08T07:26:26.556Z,180
2019-02-08T07:27:26.831Z,188
2019-02-08T07:28:27.104Z,176
2019-02-08T07:29:26.601Z,160
2019-02-08T07:30:26.874Z,180
2019-02-08T07:31:26.894Z,184
2019-02-08T07:32:26.915Z,196
2019-02-08T07:33:27.223Z,204
2019-02-08T07:34:26.988Z,220
2019-02-08T07:35:26.966Z,212
2019-02-08T07:36:27.509Z,232
2019-02-08T07:37:27.000Z,228
2019-02-08T07:38:27.016Z,248
2019-02-08T07:39:26.773Z,252
2019-02-08T07:40:27.050Z,244
2019-02-08T07:41:26.809Z,212
2019-02-08T07:42:26.825Z,200
2019-02-08T07:43:27.102Z,176
2019-02-08T07:44:27.116Z,184
2019-02-08T07:45:27.396Z,188
2019-02-08T07:46:27.169Z,196
2019-02-08T07:47:26.910Z,208
2019-02-08T07:48:27.191Z,236
2019-02-08T07:49:26.944Z,268
2019-02-08T07:50:26.963Z,252
2019-02-08T07:51:27.241Z,248
2019-02-08T07:52:27.516Z,276
2019-02-08T07:53:27.535Z,272
2019-02-08T07:54:27.286Z,284
2019-02-08T07:55:32.783Z,300
2019-02-08T07:56:27.067Z,308
2019-02-08T07:57:27.349Z,352
2019-02-08T07:58:27.636Z,348
2019-02-08T07:59:27.645Z,372
2019-02-08T08:00:27.398Z,384
2019-02-08T08:01:27.417Z,372
2019-02-08T08:02:27.432Z,348
2019-02-08T08:03:27.703Z,348
2019-02-08T08:04:27.468Z,364
2019-02-08T08:05:27.482Z,372
2019-02-08T08:06:27.501Z,384
2019-02-08T08:07:27.524Z,408
2019-02-08T08:08:27.531Z,444
2019-02-08T08:09:27.594Z,464
2019-02-08T08:10:27.572Z,464
2019-02-08T08:11:27.584Z,504
2019-02-08T08:12:27.615Z,560
2019-02-08T08:13:29.324Z,592
2019-02-08T08:14:27.638Z,508
2019-02-08T08:15:27.661Z,448
2019-02-08T08:16:27.674Z,468
2019-02-08T08:17:27.953Z,508
2019-02-08T08:18:27.967Z,556
2019-02-08T08:19:27.736Z,592
2019-02-08T08:20:27.741Z,652
2019-02-08T08:21:27.765Z,668
2019-02-08T08:22:27.526Z,696
2019-02-08T08:23:28.054Z,712
2019-02-08T08:24:28.326Z,724
2019-02-08T08:25:33.800Z,736
2019-02-08T08:26:27.862Z,752
2019-02-08T08:27:27.866Z,668
2019-02-08T08:28:27.621Z,616
2019-02-08T08:29:27.898Z,600
2019-02-08T08:30:27.922Z,608
2019-02-08T08:31:28.192Z,592
2019-02-08T08:32:27.953Z,600
2019-02-08T08:33:27.729Z,624
2019-02-08T08:34:28.508Z,640
2019-02-08T08:35:28.021Z,676
2019-02-08T08:36:27.758Z,668
2019-02-08T08:37:29.131Z,636
2019-02-08T08:38:28.055Z,652
2019-02-08T08:39:28.121Z,700
2019-02-08T08:40:28.607Z,772
2019-02-08T08:41:27.851Z,808
2019-02-08T08:42:28.128Z,884
2019-02-08T08:43:28.143Z,920
2019-02-08T08:44:28.426Z,936
2019-02-08T08:45:28.180Z,888
2019-02-08T08:46:27.946Z,864
2019-02-08T08:47:28.488Z,828
2019-02-08T08:48:28.231Z,816
2019-02-08T08:49:28.029Z,804
2019-02-08T08:50:28.780Z,816
2019-02-08T08:51:28.540Z,772
2019-02-08T08:52:28.041Z,716
2019-02-08T08:53:28.320Z,724
2019-02-08T08:54:28.078Z,744
2019-02-08T08:55:28.609Z,768
2019-02-08T08:56:28.374Z,848
2019-02-08T08:57:28.649Z,840
2019-02-08T08:58:28.406Z,904
2019-02-08T08:59:29.334Z,1012
2019-02-08T09:00:28.181Z,1076
2019-02-08T09:01:28.458Z,1056
2019-02-08T09:02:28.474Z,1008
2019-02-08T09:03:28.265Z,1024
2019-02-08T09:04:28.257Z,960
2019-02-08T09:05:28.271Z,940
2019-02-08T09:06:28.815Z,984
2019-02-08T09:07:28.574Z,1028
2019-02-08T09:08:28.576Z,1052
2019-02-08T09:09:28.338Z,1060
2019-02-08T09:10:28.359Z,1008
2019-02-08T09:11:28.634Z,888
2019-02-08T09:12:28.660Z,888
2019-02-08T09:13:28.683Z,880
2019-02-08T09:14:28.688Z,840
2019-02-08T09:15:29.340Z,812
2019-02-08T09:16:28.467Z,864
2019-02-08T09:17:28.483Z,964
2019-02-08T09:18:29.015Z,1016
2019-02-08T09:19:28.769Z,976
2019-02-08T09:20:28.790Z,968
2019-02-08T09:21:28.816Z,1112
2019-02-08T09:22:28.820Z,1152
2019-02-08T09:23:28.589Z,1092
2019-02-08T09:24:29.128Z,1084
2019-02-08T09:25:28.620Z,1152
2019-02-08T09:26:28.963Z,1120
2019-02-08T09:27:28.908Z,1092
2019-02-08T09:28:28.674Z,952
2019-02-08T09:29:29.216Z,900
2019-02-08T09:30:28.970Z,1024
2019-02-08T09:31:29.502Z,1048
2019-02-08T09:32:28.742Z,1128
2019-02-08T09:33:29.277Z,1040
2019-02-08T09:34:29.061Z,1048
2019-02-08T09:35:29.053Z,1088
2019-02-08T09:36:29.070Z,1060
2019-02-08T09:37:29.088Z,1012
2019-02-08T09:38:28.850Z,976
2019-02-08T09:39:29.122Z,888
2019-02-08T09:40:29.144Z,824
2019-02-08T09:41:29.161Z,744
2019-02-08T09:42:29.179Z,776
2019-02-08T09:43:28.946Z,872
2019-02-08T09:44:30.875Z,792
2019-02-08T09:45:29.494Z,732
2019-02-08T09:46:29.513Z,860
2019-02-08T09:47:29.264Z,992
2019-02-08T09:48:29.282Z,1084
2019-02-08T09:49:29.303Z,1072
2019-02-08T09:50:29.059Z,1112
2019-02-08T09:51:29.335Z,1084
2019-02-08T09:52:29.097Z,1056
2019-02-08T09:53:29.371Z,1184
2019-02-08T09:54:29.163Z,1308
2019-02-08T09:55:29.408Z,1288
2019-02-08T09:56:29.436Z,1256
2019-02-08T09:57:29.441Z,1160
2019-02-08T09:58:29.458Z,1144
2019-02-08T09:59:29.735Z,1112
2019-02-08T10:00:29.756Z,1128
2019-02-08T10:01:29.772Z,1032
2019-02-08T10:02:29.792Z,972
2019-02-08T10:03:29.554Z,968
2019-02-08T10:04:29.568Z,972
2019-02-08T10:05:29.843Z,968
2019-02-08T10:06:29.607Z,884
2019-02-08T10:07:29.619Z,892
2019-02-08T10:08:29.635Z,916
2019-02-08T10:09:30.172Z,1000
2019-02-08T10:10:29.413Z,1052
2019-02-08T10:11:29.696Z,1004
2019-02-08T10:12:29.450Z,948
2019-02-08T10:13:29.724Z,1188
2019-02-08T10:14:29.487Z,1240
2019-02-08T10:15:29.767Z,1160
2019-02-08T10:16:29.785Z,1272
2019-02-08T10:17:30.070Z,1348
2019-02-08T10:18:29.816Z,1392
2019-02-08T10:19:29.844Z,1516
2019-02-08T10:20:29.858Z,1632
2019-02-08T10:21:29.867Z,1684
2019-02-08T10:22:30.405Z,1700
2019-02-08T10:23:30.171Z,1556
2019-02-08T10:24:29.925Z,1348
2019-02-08T10:25:29.940Z,1240
2019-02-08T10:26:29.699Z,1236
2019-02-08T10:27:29.987Z,1260
2019-02-08T10:28:30.038Z,1348
2019-02-08T10:29:30.027Z,1320
2019-02-08T10:30:30.038Z,1476
2019-02-08T10:31:29.796Z,1388
2019-02-08T10:32:30.585Z,1472
2019-02-08T10:33:30.352Z,1524
2019-02-08T10:34:29.841Z,1376
2019-02-08T10:35:30.405Z,1480
2019-02-08T10:36:29.883Z,1608
2019-02-08T10:37:30.153Z,1424
2019-02-08T10:38:30.170Z,1392
2019-02-08T10:39:30.446Z,1372
2019-02-08T10:40:30.211Z,1492
2019-02-08T10:41:37.106Z,1592
2019-02-08T10:42:30.252Z,1536
2019-02-08T10:43:30.270Z,1436
2019-02-08T10:44:30.541Z,1332
2019-02-08T10:45:30.305Z,1316
2019-02-08T10:46:30.576Z,1420
2019-02-08T10:47:30.333Z,1612
2019-02-08T10:48:30.350Z,1500
2019-02-08T10:49:30.631Z,1632
2019-02-08T10:50:30.388Z,1640
2019-02-08T10:51:30.403Z,1572
2019-02-08T10:52:31.480Z,1600
2019-02-08T10:53:30.959Z,1564
2019-02-08T10:54:30.469Z,1636
2019-02-08T10:55:30.221Z,1632
2019-02-08T10:56:30.760Z,1804
2019-02-08T10:57:30.512Z,1560
2019-02-08T10:58:30.536Z,1376
2019-02-08T10:59:30.291Z,1572
2019-02-08T11:00:30.572Z,1528
2019-02-08T11:01:30.843Z,1248
2019-02-08T11:02:31.126Z,1260
2019-02-08T11:03:30.369Z,1124
2019-02-08T11:04:30.646Z,1340
2019-02-08T11:05:30.659Z,1212
2019-02-08T11:06:30.678Z,1196
2019-02-08T11:07:34.997Z,1144
2019-02-08T11:08:30.717Z,1248
2019-02-08T11:09:30.990Z,1416
2019-02-08T11:10:31.009Z,1288
2019-02-08T11:11:30.768Z,1496
2019-02-08T11:12:30.536Z,1448
2019-02-08T11:13:31.317Z,1432
2019-02-08T11:14:31.336Z,1344
2019-02-08T11:15:30.837Z,1340
2019-02-08T11:16:31.132Z,1256
2019-02-08T11:17:30.882Z,1536
2019-02-08T11:18:30.896Z,1388
2019-02-08T11:19:30.910Z,1412
2019-02-08T11:20:31.231Z,1492
2019-02-08T11:21:31.214Z,1404
2019-02-08T11:22:30.967Z,1448
2019-02-08T11:23:30.732Z,1452
2019-02-08T11:24:31.282Z,1600
2019-02-08T11:25:31.021Z,1592
2019-02-08T11:26:31.611Z,1440
2019-02-08T11:27:31.312Z,1484
2019-02-08T11:28:31.333Z,1564
2019-02-08T11:29:31.095Z,1640
2019-02-08T11:30:31.106Z,1648
2019-02-08T11:31:31.139Z,1772
2019-02-08T11:32:47.516Z,1664
2019-02-08T11:33:31.423Z,1848
2019-02-08T11:34:31.505Z,1720
2019-02-08T11:35:31.200Z,1760
2019-02-08T11:36:31.228Z,1908
2019-02-08T11:37:30.981Z,2080
2019-02-08T11:38:30.996Z,1824
2019-02-08T11:39:31.027Z,1624
2019-02-08T11:40:31.555Z,1420
2019-02-08T11:41:31.571Z,1308
2019-02-08T11:42:31.326Z,1548
2019-02-08T11:43:31.396Z,1784
2019-02-08T11:44:31.116Z,1544
2019-02-08T11:45:31.127Z,1628
2019-02-08T11:46:31.150Z,1544
2019-02-08T11:47:31.163Z,1424
2019-02-08T11:48:31.179Z,1284
2019-02-08T11:49:31.203Z,1216
2019-02-08T11:50:31.754Z,1324
2019-02-08T11:51:31.494Z,1388
2019-02-08T11:52:31.252Z,1544
2019-02-08T11:53:31.789Z,1608
2019-02-08T11:54:31.806Z,1576
2019-02-08T11:55:31.821Z,1620
2019-02-08T11:56:36.422Z,1684
2019-02-08T11:57:31.347Z,1684
2019-02-08T11:58:31.636Z,1908
2019-02-08T11:59:31.640Z,1948
2019-02-08T12:00:31.658Z,1956
2019-02-08T12:01:31.681Z,2008
2019-02-08T12:02:31.948Z,2088
2019-02-08T12:03:31.713Z,2104
2019-02-08T12:04:31.993Z,2140
2019-02-08T12:05:31.747Z,2188
2019-02-08T12:06:32.028Z,2136
2019-02-08T12:07:31.791Z,2056
2019-02-08T12:08:31.813Z,1972
2019-02-08T12:09:32.082Z,1980
2019-02-08T12:10:31.839Z,1816
2019-02-08T12:11:31.603Z,1672
2019-02-08T12:12:31.877Z,1660
2019-02-08T12:13:31.948Z,1700
2019-02-08T12:14:33.033Z,1680
2019-02-08T12:15:32.452Z,1592
2019-02-08T12:16:31.961Z,1468
2019-02-08T12:17:31.974Z,1428
2019-02-08T12:18:31.731Z,1280
2019-02-08T12:19:32.315Z,1360
2019-02-08T12:20:32.290Z,1080
2019-02-08T12:21:31.789Z,1068
2019-02-08T12:22:32.058Z,928
2019-02-08T12:23:32.078Z,904
2019-02-08T12:24:31.889Z,1384
2019-02-08T12:25:32.115Z,1384
2019-02-08T12:26:37.643Z,1216
2019-02-08T12:27:32.155Z,1428
2019-02-08T12:28:32.170Z,964
2019-02-08T12:29:32.459Z,1068
2019-02-08T12:30:32.207Z,1192
2019-02-08T12:31:32.225Z,1064
2019-02-08T12:32:32.499Z,972
2019-02-08T12:33:32.828Z,1072
2019-02-08T12:34:32.542Z,1096
2019-02-08T12:35:32.299Z,920
2019-02-08T12:36:32.621Z,944
2019-02-08T12:37:32.338Z,944
2019-02-08T12:38:32.394Z,944
2019-02-08T12:39:32.438Z,1024
2019-02-08T12:40:32.131Z,1040
2019-02-08T12:41:32.403Z,1256
2019-02-08T12:42:32.166Z,1012
2019-02-08T12:43:32.705Z,1184
2019-02-08T12:44:32.774Z,1316
2019-02-08T12:45:32.751Z,1104
2019-02-08T12:46:32.498Z,1120
2019-02-08T12:47:32.261Z,1208
2019-02-08T12:48:33.057Z,1064
2019-02-08T12:49:33.072Z,912
2019-02-08T12:50:33.088Z,872
2019-02-08T12:51:32.589Z,800
2019-02-08T12:52:32.868Z,1084
2019-02-08T12:53:33.145Z,1220
2019-02-08T12:54:32.391Z,1060
2019-02-08T12:55:32.930Z,1272
2019-02-08T12:56:33.211Z,1440
2019-02-08T12:57:32.441Z,1340
2019-02-08T12:58:33.514Z,1260
2019-02-08T12:59:32.794Z,1248
2019-02-08T13:00:33.011Z,1068
2019-02-08T13:01:39.872Z,1348
2019-02-08T13:02:32.789Z,1548
2019-02-08T13:03:32.809Z,1436
2019-02-08T13:04:32.843Z,1160
2019-02-08T13:05:32.844Z,1152
2019-02-08T13:06:32.866Z,1352
2019-02-08T13:07:32.625Z,1112
2019-02-08T13:08:32.647Z,784
2019-02-08T13:09:33.176Z,920
2019-02-08T13:10:32.939Z,960
2019-02-08T13:11:32.956Z,740
2019-02-08T13:12:32.718Z,788
2019-02-08T13:13:32.990Z,1104
2019-02-08T13:14:33.014Z,776
2019-02-08T13:15:32.772Z,852
2019-02-08T13:16:32.797Z,820
2019-02-08T13:17:33.988Z,816
2019-02-08T13:18:32.827Z,768
2019-02-08T13:19:33.105Z,792
2019-02-08T13:20:33.120Z,936
2019-02-08T13:21:33.397Z,1052
2019-02-08T13:22:33.162Z,1044
2019-02-08T13:23:33.176Z,996
2019-02-08T13:24:33.455Z,984
2019-02-08T13:25:33.209Z,1320
2019-02-08T13:26:33.765Z,1088
2019-02-08T13:27:33.248Z,1144
2019-02-08T13:28:33.261Z,1316
2019-02-08T13:29:33.541Z,1168
2019-02-08T13:30:33.819Z,1000
2019-02-08T13:31:33.321Z,912
2019-02-08T13:32:33.339Z,864
2019-02-08T13:33:33.355Z,896
2019-02-08T13:34:33.635Z,852
2019-02-08T13:35:33.670Z,880
2019-02-08T13:36:33.417Z,660
2019-02-08T13:37:33.173Z,768
2019-02-08T13:38:33.707Z,860
2019-02-08T13:39:33.473Z,780
2019-02-08T13:40:33.541Z,932
2019-02-08T13:41:33.504Z,980
2019-02-08T13:42:33.261Z,1080
2019-02-08T13:43:33.536Z,1136
2019-02-08T13:44:33.560Z,1148
2019-02-08T13:45:33.370Z,1072
2019-02-08T13:46:33.596Z,988
2019-02-08T13:47:33.617Z,1016
2019-02-08T13:48:33.638Z,1036
2019-02-08T13:49:33.683Z,1200
2019-02-08T13:50:33.667Z,1232
2019-02-08T13:51:33.952Z,1276
2019-02-08T13:52:33.701Z,1288
2019-02-08T13:53:33.718Z,1212
2019-02-08T13:54:33.736Z,1128
2019-02-08T13:55:33.761Z,1192
2019-02-08T13:56:33.520Z,1240
2019-02-08T13:57:33.789Z,1172
2019-02-08T13:58:35.135Z,1128
2019-02-08T13:59:34.091Z,1044
2019-02-08T14:00:33.905Z,1092
2019-02-08T14:01:34.126Z,1116
2019-02-08T14:02:33.630Z,1040
2019-02-08T14:03:33.646Z,1072
2019-02-08T14:04:33.923Z,1064
2019-02-08T14:05:33.988Z,1008
2019-02-08T14:06:33.700Z,956